Westcliffe, CO

9:55 AM MDT on August 28, 2014 (GMT -0600)
Saguache | Change Station
CLOSE
Current Station
Airport
Location: Saguache,
Elevation: 7825 ft
Nearby Weather Stations

Elev 7825 ft 38.10 °N, 106.17 °W | Updated 30 minutes ago

Overcast
Overcast
54 °F
Feels Like 54 °F
N
12
Wind Variable Wind from WNW

Today
High -- | Low -- °F
--% Chance of Precip.
Yesterday
High -- | Low -- °F
Precip. -- in
6:27 AM 7:37 PM
Waxing Crescent, 8% visible
Pressure 30.33 in
Visibility 10.0 miles
Clouds Overcast 4300 ft
Dew Point 43 °F
Humidity 67%
Rainfall 0.00 in
Snow Depth Not available.
UV 1 out of 12
Pollen 9.80 out of 12
Air Quality Not available.
Flu Activity Not available.
METAR K04V 281525Z AUTO 30010KT 10SM OVC043 12/06 A3033 RMK AO2

More Conditions Fewer Conditions

Pressure 30.33 in
Visibility 10.0 miles
Clouds Overcast 4300 ft
Dew Point 43 °F
Humidity 67%
Rainfall 0.00 in
Snow Depth Not available.
UV 1 out of 12
Pollen 9.80 out of 12
Air Quality Not available.
Flu Activity Not available.
METAR K04V 281525Z AUTO 30010KT 10SM OVC043 12/06 A3033 RMK AO2

More Conditions Fewer Conditions

10-Day Weather Forecast

Almanac

Astronomy

Aug. 28, 2014 Rise Set
Actual Time 6:27 AM MDT 7:37 PM MDT
Civil Twilight 6:00 AM MDT 8:04 PM MDT
Nautical Twilight 5:28 AM MDT 8:36 PM MDT
Astronomical Twilight 4:54 AM MDT 9:10 PM MDT
Moon 9:19 AM MDT 9:06 PM MDT
Length of Visible Light 14h 03m
Length of Day
13h 09m
Tomorrow will be 2m 20s shorter.
Waxing Crescent, 8% of the Moon is Illuminated
Today
Waxing Crescent
Sep 2
First Quarter
Sep 8
Full
Sep 15
Last Quarter
Sep 24
New

Today's Extremes

State Highs State Lows

Community

WunderPhotos

Upload Photos

1,747,993 photos uploaded!

Nearby

Snow Depth

Station Depth Elevation
Medano Pass 0 in 9620 ft
Ute Creek 0 in 10650 ft
Trinchera 0 in 10860 ft
Porphyry Creek 0 in 10760 ft
Apishapa 0 in 10000 ft

Earthquake Activity

City Distance Mag. Time & Date
No recent earthquake activity has been reported nearby.
Minimum magnitude displayed is 2.5.

Coastal Water Temperatures

Place Temperature
No Stations Reporting

Nearby Weather Stations